Riverdale, Kansas
Current Conditions -  °F | °C
As of 2:16 PM on Friday 19 Dec 2014 (Local Time) from KWLD Reporting Station
Broken Clouds Broken Clouds  
Wind Chill: 38°   Ceiling: 1400
Heat Index: 38°   Visibility: 10mi
Dew Point: 32°   Wind: 0mph
Humidity: 79%   Direction: NA
Pressure: 30.2"   Gusts: NA
Location:  37.2413°N, 97.3686°W
Report Text: KWLD 192016Z AUTO 00000KT 10SM BKN014 BKN033 03/00 A3020 RMK AO2 T00330000
Loading
Personal Weather Stations






























Interactive Weather Map New forecast layout! Learn more

10-Day Weather Forecast

Advertisements
Track Severe Weather on mobile